sim
Sign-in with your pilot id or email,
or register
Callsign
Passwort

Schedule Details

Flight Number: OEO4133
Departure: Rome Leonardo da Vinci Fiumicino Airport (LIRF) at 11:10
Arrival: Munich Airport (EDDM) at 12:45

Weather Information
Getting current METAR information for LIRF 260250Z 09013KT 9999 -TSRA FEW020CB SCT040 15/12 Q0997 RETSRA NOSIG
Getting current METAR information for EDDM 260250Z 27011KT 9999 SCT016 BKN024 08/06 Q1000 NOSIG

Schedule Frequency

Route Map